Time;durP1;ratioP1;P1;durP2;ratioP2;P2;SDS_P1;SDS_P2;PMS_P1;PMS_P2;Temp;Humidity;BMP_temperature;BMP_pressure;BME280_temperature;BME280_humidity;BME280_pressure;Samples;Min_cycle;Max_cycle;Signal;HPM_P1;HPM_P2
2022/06/15 00:01:21;;;;;;;46.40;17.80;;;13.70;99.90;;;;;;5060067;28;20033;-71
2022/06/15 00:03:48;;;;;;;37.40;16.77;;;13.60;99.90;;;;;;5071656;28;20047;-71
2022/06/15 00:06:21;;;;;;;42.20;18.00;;;13.60;99.90;;;;;;5087615;28;20451;-70
2022/06/15 00:08:53;;;;;;;28.80;14.48;;;13.50;99.90;;;;;;5064708;28;20052;-70
2022/06/15 00:11:26;;;;;;;27.02;11.77;;;13.50;99.90;;;;;;5080620;28;20045;-69
2022/06/15 00:13:53;;;;;;;30.92;12.65;;;13.50;99.90;;;;;;5082036;28;20036;-69
2022/06/15 00:16:20;;;;;;;18.67;9.15;;;13.50;99.90;;;;;;5055069;28;20049;-69
2022/06/15 00:18:46;;;;;;;20.52;9.52;;;13.50;99.90;;;;;;5071839;28;20398;-69
2022/06/15 00:21:14;;;;;;;22.90;10.10;;;13.50;99.90;;;;;;5067114;28;20097;-69
2022/06/15 00:23:39;;;;;;;23.85;10.27;;;13.50;99.90;;;;;;5061981;28;20507;-69
2022/06/15 00:26:06;;;;;;;19.83;9.65;;;13.40;99.90;;;;;;5088396;28;20035;-69
2022/06/15 00:28:32;;;;;;;17.40;9.05;;;13.40;99.90;;;;;;5067901;28;20124;-69
2022/06/15 00:30:58;;;;;;;;;;;13.40;99.90;;;;;;5054419;28;20063;-69
2022/06/15 00:33:26;;;;;;;14.40;8.13;;;13.40;99.90;;;;;;5079082;28;20542;-69
2022/06/15 00:35:57;;;;;;;12.73;7.15;;;13.30;99.90;;;;;;5089957;28;20136;-69
2022/06/15 00:38:30;;;;;;;9.68;6.20;;;13.40;99.90;;;;;;5088918;28;20107;-69
2022/06/15 00:40:57;;;;;;;10.52;5.93;;;13.30;99.90;;;;;;5065515;28;20040;-71
2022/06/15 00:43:38;;;;;;;11.55;6.20;;;13.30;99.90;;;;;;5083724;28;20650;-69
2022/06/15 00:46:37;;;;;;;9.63;4.63;;;13.30;99.90;;;;;;5082726;28;20040;-69
2022/06/15 00:49:15;;;;;;;12.25;4.28;;;13.30;99.90;;;;;;5070952;28;20044;-69
2022/06/15 00:51:43;;;;;;;8.15;4.80;;;13.20;99.90;;;;;;5069333;28;20057;-69
2022/06/15 00:54:09;;;;;;;9.45;4.70;;;13.30;99.90;;;;;;5085514;28;20062;-69
2022/06/15 00:56:37;;;;;;;9.88;4.47;;;13.30;99.90;;;;;;5089110;28;20036;-69
2022/06/15 00:59:22;;;;;;;10.00;4.97;;;13.20;99.90;;;;;;5089603;28;20091;-69
2022/06/15 01:01:47;;;;;;;7.10;4.50;;;13.20;99.90;;;;;;5056371;28;20106;-69
2022/06/15 01:04:15;;;;;;;7.45;4.70;;;13.20;99.90;;;;;;5069499;28;20072;-69
2022/06/15 01:06:59;;;;;;;12.18;5.43;;;13.20;99.90;;;;;;5062830;28;20061;-69
2022/06/15 01:09:29;;;;;;;11.45;5.25;;;13.20;99.90;;;;;;5043749;28;20039;-69
2022/06/15 01:12:07;;;;;;;10.23;5.43;;;13.20;99.90;;;;;;5070473;28;20119;-69
2022/06/15 01:14:41;;;;;;;9.68;4.70;;;13.20;99.90;;;;;;5071264;28;20436;-69
2022/06/15 01:17:15;;;;;;;7.43;4.88;;;13.20;99.90;;;;;;5082914;28;20071;-69
2022/06/15 01:19:47;;;;;;;9.57;4.78;;;13.10;99.90;;;;;;5066976;28;20036;-69
2022/06/15 01:22:25;;;;;;;8.75;4.80;;;13.10;99.90;;;;;;5054389;28;20123;-69
2022/06/15 01:25:05;;;;;;;8.45;4.93;;;13.10;99.90;;;;;;5079533;28;20500;-69
2022/06/15 01:28:00;;;;;;;7.30;4.25;;;13.10;99.90;;;;;;5074820;28;20178;-69
2022/06/15 01:30:42;;;;;;;7.82;4.43;;;13.10;99.90;;;;;;5085539;28;20055;-69
2022/06/15 01:33:27;;;;;;;7.85;4.40;;;13.10;99.90;;;;;;5062242;28;20043;-69
2022/06/15 01:36:17;;;;;;;9.55;5.80;;;13.00;99.90;;;;;;5089103;28;20116;-68
2022/06/15 01:39:01;;;;;;;10.00;4.95;;;13.00;99.90;;;;;;5085517;28;20036;-69
2022/06/15 01:41:34;;;;;;;6.65;3.90;;;13.00;99.90;;;;;;5075884;28;20503;-68
2022/06/15 01:44:11;;;;;;;7.20;4.57;;;13.00;99.90;;;;;;5051077;28;20501;-69
2022/06/15 01:46:39;;;;;;;;;;;12.90;99.90;;;;;;5057534;28;20048;-69
2022/06/15 01:49:08;;;;;;;7.28;4.00;;;12.90;99.90;;;;;;5065804;28;19996;-69
2022/06/15 01:51:39;;;;;;;10.93;5.28;;;12.90;99.90;;;;;;5069950;28;20052;-69
2022/06/15 01:54:10;;;;;;;8.95;4.38;;;12.80;99.90;;;;;;5082553;28;20373;-69
2022/06/15 01:56:44;;;;;;;7.32;4.53;;;12.90;99.90;;;;;;5087230;28;20032;-69
2022/06/15 01:59:31;;;;;;;8.98;4.70;;;12.80;99.90;;;;;;5060789;28;20036;-69
2022/06/15 02:02:04;;;;;;;6.72;4.47;;;12.80;99.90;;;;;;5085447;28;20032;-69
2022/06/15 02:05:26;;;;;;;9.52;4.68;;;12.80;99.90;;;;;;5070023;28;20040;-69
2022/06/15 02:07:59;;;;;;;8.50;4.88;;;12.80;99.90;;;;;;4989735;28;20042;-69
2022/06/15 02:10:25;;;;;;;7.32;4.30;;;12.80;99.90;;;;;;4971239;28;20042;-69
2022/06/15 02:12:57;;;;;;;8.93;5.05;;;12.80;99.90;;;;;;5047821;28;20062;-69
2022/06/15 02:15:26;;;;;;;6.70;4.15;;;12.70;99.90;;;;;;5063025;28;20165;-69
2022/06/15 02:17:54;;;;;;;10.73;5.28;;;12.70;99.90;;;;;;5078783;28;20283;-69
2022/06/15 02:20:27;;;;;;;9.48;4.82;;;12.70;99.90;;;;;;5058246;22;20101;-71
2022/06/15 02:22:56;;;;;;;7.25;4.10;;;12.70;99.90;;;;;;5065964;28;20039;-69
2022/06/15 02:25:28;;;;;;;9.00;4.32;;;12.70;99.90;;;;;;5040806;28;20385;-68
2022/06/15 02:27:54;;;;;;;7.43;3.95;;;12.70;99.90;;;;;;5045647;28;20041;-69
2022/06/15 02:30:24;;;;;;;7.72;4.85;;;12.70;99.90;;;;;;5080980;28;20499;-69
2022/06/15 02:32:51;;;;;;;9.40;4.65;;;12.70;99.90;;;;;;5076285;28;20037;-69
2022/06/15 02:35:18;;;;;;;8.63;4.72;;;12.70;99.90;;;;;;5061040;28;20040;-69
2022/06/15 02:37:45;;;;;;;10.77;4.25;;;12.70;99.90;;;;;;5060208;28;20036;-68
2022/06/15 02:40:20;;;;;;;8.77;4.28;;;12.70;99.90;;;;;;5049899;28;20131;-68
2022/06/15 02:42:47;;;;;;;9.23;4.88;;;12.70;99.90;;;;;;5080533;28;20032;-69
2022/06/15 02:45:22;;;;;;;7.45;4.05;;;12.70;99.90;;;;;;5092047;28;20036;-69
2022/06/15 02:47:48;;;;;;;8.82;4.53;;;12.60;99.90;;;;;;5062474;28;20252;-69
2022/06/15 02:50:18;;;;;;;10.05;4.90;;;12.60;99.90;;;;;;5043908;28;20048;-68
2022/06/15 02:52:52;;;;;;;6.45;4.07;;;12.60;99.90;;;;;;5042373;28;20247;-69
2022/06/15 02:55:20;;;;;;;6.82;4.25;;;12.60;99.90;;;;;;5055213;28;20107;-68
2022/06/15 02:57:50;;;;;;;9.70;4.47;;;12.70;99.90;;;;;;5080619;28;20144;-69
2022/06/15 03:00:19;;;;;;;10.75;4.32;;;12.60;99.90;;;;;;5077363;28;20477;-68
2022/06/15 03:02:45;;;;;;;7.45;4.15;;;12.60;99.90;;;;;;5078128;28;20110;-68
2022/06/15 03:05:10;;;;;;;7.72;3.85;;;12.70;99.90;;;;;;5068799;28;20527;-68
2022/06/15 03:07:36;;;;;;;9.20;4.53;;;12.60;99.90;;;;;;5047192;28;20488;-69
2022/06/15 03:10:02;;;;;;;8.80;4.35;;;12.60;99.90;;;;;;5083311;28;20511;-68
2022/06/15 03:12:28;;;;;;;7.25;4.32;;;12.60;99.90;;;;;;5084672;28;20042;-68
2022/06/15 03:14:53;;;;;;;7.23;4.07;;;12.60;99.90;;;;;;5074306;28;20041;-68
2022/06/15 03:17:19;;;;;;;8.47;3.73;;;12.70;99.90;;;;;;5065036;28;20119;-69
2022/06/15 03:19:45;;;;;;;6.70;4.03;;;12.60;99.90;;;;;;5082375;28;20282;-69
2022/06/15 03:22:10;;;;;;;9.00;3.80;;;12.60;99.90;;;;;;5083319;28;20433;-69
2022/06/15 03:24:36;;;;;;;8.43;4.37;;;12.70;99.90;;;;;;5049228;28;20159;-69
2022/06/15 03:27:02;;;;;;;7.23;4.27;;;12.70;99.90;;;;;;5082034;28;20290;-69
2022/06/15 03:29:27;;;;;;;5.68;3.75;;;12.70;99.90;;;;;;5082967;28;20032;-68
2022/06/15 03:31:53;;;;;;;7.50;4.00;;;12.70;99.90;;;;;;5084419;28;20696;-69
2022/06/15 03:34:19;;;;;;;8.07;4.13;;;12.70;99.90;;;;;;5080567;28;20607;-69
2022/06/15 03:36:47;;;;;;;8.47;4.17;;;12.70;99.90;;;;;;5075613;28;20028;-69
2022/06/15 03:39:13;;;;;;;6.00;3.67;;;12.80;99.90;;;;;;5051616;28;20291;-69
2022/06/15 03:41:38;;;;;;;6.65;4.00;;;12.70;99.90;;;;;;5078795;28;20964;-69
2022/06/15 03:44:05;;;;;;;8.40;3.50;;;12.80;99.90;;;;;;5077430;28;20032;-68
2022/06/15 03:46:30;;;;;;;;;;;12.70;99.90;;;;;;5075173;28;20411;-68
2022/06/15 03:48:56;;;;;;;5.78;3.10;;;12.70;99.90;;;;;;5069749;28;19916;-68
2022/06/15 03:51:22;;;;;;;7.20;3.55;;;12.70;99.90;;;;;;5072432;28;20492;-68
2022/06/15 03:53:48;;;;;;;6.47;3.28;;;12.80;99.90;;;;;;5088750;28;20040;-68
2022/06/15 03:56:13;;;;;;;6.75;3.97;;;12.80;99.90;;;;;;5059740;28;20036;-69
2022/06/15 03:58:39;;;;;;;5.97;3.35;;;12.90;99.90;;;;;;5077304;28;20106;-69
2022/06/15 04:01:05;;;;;;;10.20;3.90;;;12.90;99.90;;;;;;5080261;28;20078;-69
2022/06/15 04:03:31;;;;;;;6.55;3.78;;;12.90;99.90;;;;;;5070144;28;20039;-68
2022/06/15 04:05:58;;;;;;;7.47;3.85;;;13.00;99.90;;;;;;5076085;28;20067;-69
2022/06/15 04:08:37;;;;;;;7.07;3.78;;;13.00;99.90;;;;;;5063318;28;20127;-68
2022/06/15 04:11:11;;;;;;;6.65;3.50;;;13.10;99.90;;;;;;5076596;28;20123;-69
2022/06/15 04:13:38;;;;;;;6.63;3.10;;;13.10;99.90;;;;;;5056899;28;20126;-69
2022/06/15 04:16:07;;;;;;;7.40;3.63;;;13.20;99.90;;;;;;5076010;28;20054;-69
2022/06/15 04:18:34;;;;;;;9.48;3.38;;;13.20;99.90;;;;;;5063727;28;20380;-69
2022/06/15 04:21:07;;;;;;;11.85;3.92;;;13.20;99.90;;;;;;5036667;28;20399;-69
2022/06/15 04:23:32;;;;;;;7.82;3.90;;;13.20;99.90;;;;;;5079769;28;20060;-69
2022/06/15 04:26:01;;;;;;;6.53;3.70;;;13.30;99.90;;;;;;5056360;28;20079;-69
2022/06/15 04:28:28;;;;;;;6.35;3.70;;;13.30;99.90;;;;;;5079595;28;20047;-69
2022/06/15 04:30:54;;;;;;;6.88;3.60;;;13.30;99.90;;;;;;5062756;28;20046;-69
2022/06/15 04:33:23;;;;;;;6.03;3.15;;;13.40;99.90;;;;;;5077809;28;20525;-70
2022/06/15 04:35:49;;;;;;;6.10;3.60;;;13.40;99.90;;;;;;5085647;28;20040;-70
2022/06/15 04:38:14;;;;;;;6.53;3.88;;;13.50;99.90;;;;;;5085519;28;20508;-70
2022/06/15 04:40:41;;;;;;;11.68;4.15;;;13.40;99.90;;;;;;5080295;28;20633;-70
2022/06/15 04:43:08;;;;;;;7.80;4.15;;;13.50;99.90;;;;;;5084286;28;20552;-70
2022/06/15 04:45:35;;;;;;;9.00;4.18;;;13.50;99.90;;;;;;5084999;28;20043;-70
2022/06/15 04:48:01;;;;;;;10.10;4.05;;;13.50;99.90;;;;;;5051791;28;20036;-69
2022/06/15 04:50:28;;;;;;;7.65;4.03;;;13.50;99.90;;;;;;5071532;28;20107;-69
2022/06/15 04:52:54;;;;;;;6.97;4.20;;;13.50;99.90;;;;;;5064206;28;20051;-69
2022/06/15 04:55:22;;;;;;;7.47;3.90;;;13.60;99.90;;;;;;5061570;28;20369;-69
2022/06/15 04:57:50;;;;;;;9.40;4.10;;;13.50;99.90;;;;;;5066519;28;20453;-69
2022/06/15 05:00:18;;;;;;;8.27;3.78;;;13.60;99.90;;;;;;5083407;28;20368;-69
2022/06/15 05:02:44;;;;;;;9.77;3.67;;;13.60;99.90;;;;;;5059726;28;20124;-69
2022/06/15 05:05:10;;;;;;;8.20;4.55;;;13.60;99.90;;;;;;5051341;28;20172;-69
2022/06/15 05:07:36;;;;;;;;;;;13.60;99.90;;;;;;5079657;28;20047;-69
2022/06/15 05:10:04;;;;;;;10.65;4.03;;;13.60;99.90;;;;;;5087470;28;19916;-69
2022/06/15 05:12:30;;;;;;;9.85;4.85;;;13.70;99.90;;;;;;5059305;28;20040;-69
2022/06/15 05:14:55;;;;;;;7.95;3.95;;;13.60;99.90;;;;;;5063188;28;20076;-69
2022/06/15 05:17:23;;;;;;;8.98;4.93;;;13.60;99.90;;;;;;5083122;28;20059;-69
2022/06/15 05:19:49;;;;;;;7.68;4.38;;;13.70;99.90;;;;;;5065581;28;20089;-69
2022/06/15 05:22:15;;;;;;;10.45;4.78;;;13.70;99.90;;;;;;5080663;28;20400;-69
2022/06/15 05:24:41;;;;;;;8.15;3.97;;;13.70;99.90;;;;;;5079532;28;20549;-69
2022/06/15 05:27:07;;;;;;;7.03;4.07;;;13.70;99.90;;;;;;5064359;28;20055;-69
2022/06/15 05:29:35;;;;;;;8.73;4.35;;;13.70;99.90;;;;;;5048564;28;20504;-69
2022/06/15 05:32:05;;;;;;;7.03;4.13;;;13.70;99.90;;;;;;5078550;28;20074;-69
2022/06/15 05:34:31;;;;;;;9.07;3.97;;;13.70;99.90;;;;;;5088202;28;20040;-69
2022/06/15 05:36:57;;;;;;;7.32;3.60;;;13.80;99.90;;;;;;5083824;28;20617;-69
2022/06/15 05:39:22;;;;;;;8.73;3.87;;;13.80;99.90;;;;;;5086378;28;20027;-70
2022/06/15 05:41:51;;;;;;;6.80;3.58;;;13.80;99.90;;;;;;5062895;28;20747;-69
2022/06/15 05:46:44;;;;;;;6.97;3.70;;;13.90;99.90;;;;;;5071010;28;20039;-70
2022/06/15 05:49:10;;;;;;;7.22;3.85;;;13.90;99.90;;;;;;5055981;28;20043;-69
2022/06/15 05:51:36;;;;;;;7.07;3.22;;;14.00;99.90;;;;;;5065921;28;20028;-70
2022/06/15 05:54:02;;;;;;;7.88;3.95;;;14.00;99.90;;;;;;5064185;28;20041;-69
2022/06/15 05:56:28;;;;;;;12.60;3.90;;;14.00;99.90;;;;;;5083656;28;20044;-69
2022/06/15 05:58:54;;;;;;;7.95;4.43;;;14.10;99.90;;;;;;5065837;28;20503;-69
2022/06/15 06:01:27;;;;;;;9.77;3.40;;;14.10;99.90;;;;;;5086878;28;20044;-69
2022/06/15 06:03:53;;;;;;;10.52;3.83;;;14.20;99.90;;;;;;5080700;28;20036;-69
2022/06/15 06:06:18;;;;;;;6.30;3.55;;;14.20;99.90;;;;;;5048784;28;20049;-69
2022/06/15 06:08:44;;;;;;;7.20;3.47;;;14.30;99.90;;;;;;5040012;28;20043;-69
2022/06/15 06:11:13;;;;;;;5.65;3.15;;;14.30;99.90;;;;;;5039425;28;20075;-69
2022/06/15 06:13:40;;;;;;;;;;;14.40;99.90;;;;;;5084422;28;20040;-69
2022/06/15 06:16:06;;;;;;;5.53;3.22;;;14.50;99.90;;;;;;5070029;28;19929;-69
2022/06/15 06:18:32;;;;;;;6.20;3.20;;;14.60;99.90;;;;;;5077080;28;20043;-70
2022/06/15 06:20:58;;;;;;;8.07;3.25;;;14.60;99.90;;;;;;5051191;28;20040;-70
2022/06/15 06:23:23;;;;;;;6.10;3.03;;;14.70;99.90;;;;;;5081576;28;20366;-69
2022/06/15 06:25:51;;;;;;;6.43;3.22;;;14.70;99.90;;;;;;5063668;28;20048;-70
2022/06/15 06:28:22;;;;;;;7.38;2.72;;;14.80;99.90;;;;;;5064804;28;20512;-70
2022/06/15 06:30:48;;;;;;;4.63;2.78;;;14.90;99.90;;;;;;5068157;28;20408;-70
2022/06/15 06:33:13;;;;;;;5.72;3.20;;;15.00;99.90;;;;;;5083956;28;20040;-70
2022/06/15 06:35:39;;;;;;;6.82;2.80;;;15.00;99.90;;;;;;5054802;28;20041;-70
2022/06/15 06:38:04;;;;;;;7.35;2.65;;;15.10;99.90;;;;;;5063097;28;20124;-70
2022/06/15 06:40:30;;;;;;;7.20;2.70;;;15.20;99.90;;;;;;5057043;28;20032;-70
2022/06/15 06:42:56;;;;;;;7.47;3.38;;;15.30;99.90;;;;;;5078881;28;20064;-71
2022/06/15 06:45:21;;;;;;;7.65;3.30;;;15.40;99.90;;;;;;5061206;28;20046;-70
2022/06/15 06:47:48;;;;;;;5.03;2.80;;;15.40;99.90;;;;;;5076700;28;20044;-70
2022/06/15 06:50:14;;;;;;;5.80;2.25;;;15.50;99.90;;;;;;5076242;28;20298;-70
2022/06/15 06:52:41;;;;;;;4.68;2.80;;;15.60;99.90;;;;;;5081036;28;20495;-70
2022/06/15 06:55:07;;;;;;;6.45;2.65;;;15.70;99.90;;;;;;5076501;28;20530;-70
2022/06/15 06:57:36;;;;;;;5.68;2.17;;;15.70;99.90;;;;;;5060840;28;20048;-70
2022/06/15 07:00:02;;;;;;;5.97;2.70;;;15.90;99.90;;;;;;5086466;28;20062;-70
2022/06/15 07:02:28;;;;;;;7.00;2.50;;;15.90;99.90;;;;;;5067544;28;20115;-70
2022/06/15 07:04:54;;;;;;;4.25;2.35;;;16.00;99.90;;;;;;5059343;28;20350;-69
2022/06/15 07:07:20;;;;;;;3.47;2.35;;;16.10;99.90;;;;;;5039644;28;20083;-69
2022/06/15 07:09:46;;;;;;;5.75;2.78;;;16.20;99.90;;;;;;5050292;28;20366;-69
2022/06/15 07:12:11;;;;;;;4.18;1.92;;;16.30;99.90;;;;;;5079881;28;20458;-69
2022/06/15 07:14:37;;;;;;;4.07;2.10;;;16.30;99.90;;;;;;5082823;28;20134;-69
2022/06/15 07:17:03;;;;;;;7.53;2.13;;;16.50;99.90;;;;;;5083292;28;20032;-69
2022/06/15 07:19:29;;;;;;;6.70;2.35;;;16.60;99.90;;;;;;5065888;28;20396;-70
2022/06/15 07:21:54;;;;;;;3.53;1.75;;;16.60;99.90;;;;;;5062531;28;20111;-71
2022/06/15 07:24:21;;;;;;;2.97;1.52;;;16.70;99.90;;;;;;5074854;28;20127;-70
2022/06/15 07:26:47;;;;;;;;;;;16.80;99.90;;;;;;5035200;28;20032;-69
2022/06/15 07:29:15;;;;;;;5.65;1.92;;;16.80;99.90;;;;;;5070270;28;19962;-70
2022/06/15 07:31:45;;;;;;;3.28;1.92;;;16.90;99.90;;;;;;5057688;28;20036;-70
2022/06/15 07:34:11;;;;;;;6.57;2.05;;;16.90;99.90;;;;;;5073493;28;20101;-70
2022/06/15 07:36:39;;;;;;;5.43;1.92;;;17.00;99.90;;;;;;5056252;28;20044;-70
2022/06/15 07:39:06;;;;;;;5.22;1.73;;;17.10;99.90;;;;;;5074885;28;20040;-70
2022/06/15 07:41:33;;;;;;;4.63;1.65;;;17.20;99.90;;;;;;5061687;28;20039;-70
2022/06/15 07:43:59;;;;;;;4.00;1.50;;;17.30;99.90;;;;;;5075771;28;20047;-70
2022/06/15 07:46:25;;;;;;;4.10;1.60;;;17.30;99.90;;;;;;5090404;28;20048;-70
2022/06/15 07:51:39;;;;;;;5.82;1.92;;;17.40;99.90;;;;;;5083221;28;20047;-70
2022/06/15 07:54:09;;;;;;;5.47;2.30;;;17.50;99.90;;;;;;5083601;28;20441;-70
2022/06/15 07:56:36;;;;;;;4.60;2.25;;;17.50;99.90;;;;;;5064356;28;20040;-70
2022/06/15 07:59:03;;;;;;;6.18;2.78;;;17.50;99.90;;;;;;5047195;28;20127;-69
2022/06/15 08:01:29;;;;;;;5.25;2.60;;;17.50;99.90;;;;;;5055741;28;20047;-70
2022/06/15 08:03:55;;;;;;;6.43;2.80;;;17.50;99.90;;;;;;5065836;28;20041;-70
2022/06/15 08:06:21;;;;;;;5.57;2.67;;;17.50;99.90;;;;;;5049625;28;20082;-70
2022/06/15 08:08:47;;;;;;;4.90;2.63;;;17.60;99.90;;;;;;5065707;28;20385;-70
2022/06/15 08:11:14;;;;;;;6.18;2.50;;;17.60;99.90;;;;;;5089086;28;20062;-71
2022/06/15 08:13:41;;;;;;;11.77;2.80;;;17.60;99.90;;;;;;5070812;28;20047;-70
2022/06/15 08:16:07;;;;;;;5.50;2.08;;;17.70;99.90;;;;;;5069480;28;20098;-69
2022/06/15 08:18:42;;;;;;;3.60;2.05;;;17.80;99.90;;;;;;5074876;28;20051;-69
2022/06/15 08:21:15;;;;;;;3.65;1.73;;;17.90;99.90;;;;;;5086981;22;20496;-67
2022/06/15 08:23:44;;;;;;;5.93;1.70;;;18.10;99.90;;;;;;5065646;28;20072;-67
2022/06/15 08:26:14;;;;;;;5.43;1.85;;;18.20;99.90;;;;;;5062446;28;20052;-67
2022/06/15 08:28:44;;;;;;;3.33;1.80;;;18.20;99.90;;;;;;5063847;28;20099;-68
2022/06/15 08:31:11;;;;;;;3.00;1.88;;;18.30;99.90;;;;;;5025924;28;20099;-67
2022/06/15 08:33:36;;;;;;;;;;;18.40;99.90;;;;;;5022731;28;20093;-67
2022/06/15 08:36:03;;;;;;;4.25;1.95;;;18.40;99.90;;;;;;5046542;28;19921;-67
2022/06/15 08:38:29;;;;;;;3.80;1.60;;;18.40;99.90;;;;;;5036739;28;20500;-67
2022/06/15 08:41:01;;;;;;;3.13;1.60;;;18.40;99.90;;;;;;5028714;28;20028;-67
2022/06/15 08:43:59;;;;;;;5.07;1.77;;;18.50;99.90;;;;;;5042397;28;20098;-66
2022/06/15 08:46:29;;;;;;;4.93;1.52;;;18.60;99.90;;;;;;5047040;28;20519;-67
2022/06/15 08:49:10;;;;;;;3.00;1.60;;;18.60;99.90;;;;;;5037125;28;20052;-67
2022/06/15 08:51:45;;;;;;;3.25;1.67;;;18.60;99.90;;;;;;5038558;28;20083;-67
2022/06/15 08:54:35;;;;;;;5.68;1.55;;;18.70;99.90;;;;;;5048437;28;20334;-67
2022/06/15 08:57:06;;;;;;;3.88;1.70;;;18.80;99.90;;;;;;5040319;28;20116;-67
2022/06/15 09:00:00;;;;;;;4.47;1.40;;;18.80;99.90;;;;;;5023451;28;20519;-67
2022/06/15 09:02:47;;;;;;;4.22;1.50;;;19.00;99.90;;;;;;5051593;28;20466;-67
2022/06/15 09:05:29;;;;;;;3.88;1.60;;;19.00;99.90;;;;;;5027738;28;20124;-67
2022/06/15 09:08:19;;;;;;;3.47;1.83;;;19.10;99.90;;;;;;5042514;28;20101;-67
2022/06/15 09:10:56;;;;;;;4.13;1.70;;;19.10;99.90;;;;;;5020488;28;20055;-67
2022/06/15 09:13:58;;;;;;;2.75;1.80;;;19.10;99.90;;;;;;5054446;28;20047;-67
2022/06/15 09:16:42;;;;;;;3.38;1.75;;;19.20;99.90;;;;;;5039766;28;20036;-67
2022/06/15 09:19:12;;;;;;;3.28;1.65;;;19.20;99.90;;;;;;5030957;28;20042;-67
2022/06/15 09:21:46;;;;;;;4.07;2.20;;;19.20;99.90;;;;;;5013893;28;20037;-67
2022/06/15 09:24:16;;;;;;;5.60;1.77;;;19.20;99.90;;;;;;5038242;28;20172;-67
2022/06/15 09:26:49;;;;;;;3.30;1.42;;;19.10;99.90;;;;;;5043504;28;20041;-67
2022/06/15 09:29:33;;;;;;;6.57;1.90;;;19.00;99.90;;;;;;5023262;28;20045;-67
2022/06/15 09:32:11;;;;;;;3.25;1.42;;;19.00;99.90;;;;;;5031566;28;20049;-67
2022/06/15 09:34:41;;;;;;;4.63;1.35;;;19.10;99.90;;;;;;5035426;28;20405;-67
2022/06/15 09:37:23;;;;;;;3.17;1.20;;;19.10;99.90;;;;;;5033033;28;20052;-67
2022/06/15 09:39:49;;;;;;;5.90;1.50;;;19.20;99.90;;;;;;5031037;28;20060;-67
2022/06/15 09:42:22;;;;;;;;;;;19.30;99.90;;;;;;5036226;28;20040;-67
2022/06/15 09:45:03;;;;;;;3.55;1.73;;;19.50;99.90;;;;;;5043280;28;19917;-67
2022/06/15 09:47:54;;;;;;;4.13;1.60;;;19.70;99.90;;;;;;5046892;28;20042;-67
2022/06/15 09:50:48;;;;;;;3.13;1.40;;;19.90;99.90;;;;;;5013908;28;20064;-67
2022/06/15 09:53:52;;;;;;;6.25;1.55;;;20.10;99.90;;;;;;5014928;28;20049;-68
2022/06/15 09:56:20;;;;;;;2.85;1.60;;;20.30;99.90;;;;;;5018006;28;20053;-67
2022/06/15 09:59:01;;;;;;;3.55;1.20;;;20.40;99.90;;;;;;5029120;28;20490;-67
2022/06/15 10:01:32;;;;;;;2.97;1.50;;;20.50;99.90;;;;;;5048705;28;20048;-68
2022/06/15 10:04:01;;;;;;;3.95;1.13;;;20.60;99.90;;;;;;5038497;28;20029;-68
2022/06/15 10:06:55;;;;;;;4.57;1.35;;;20.50;99.90;;;;;;5053970;28;20489;-68
2022/06/15 10:09:28;;;;;;;2.90;1.20;;;20.40;99.90;;;;;;5037351;28;20048;-67
2022/06/15 10:12:56;;;;;;;2.47;1.38;;;20.30;99.90;;;;;;5057965;28;20102;-67
2022/06/15 10:14:51;;;;;;;4.40;1.85;;;20.20;99.90;;;;;;5057135;28;20129;-67
2022/06/15 10:17:35;;;;;;;2.35;1.48;;;20.20;99.90;;;;;;5025650;28;20046;-67
2022/06/15 10:20:00;;;;;;;4.53;1.35;;;20.10;99.90;;;;;;5044510;28;20037;-67
2022/06/15 10:22:33;;;;;;;4.28;1.50;;;20.00;99.90;;;;;;5062594;28;20142;-67
2022/06/15 10:25:03;;;;;;;3.28;1.50;;;20.00;99.90;;;;;;5029354;28;20048;-68
2022/06/15 10:27:32;;;;;;;4.50;1.98;;;20.00;99.90;;;;;;5020019;28;20067;-67
2022/06/15 10:30:07;;;;;;;3.22;1.67;;;20.00;99.90;;;;;;5042945;28;20089;-67
2022/06/15 10:32:35;;;;;;;6.82;1.70;;;19.90;99.90;;;;;;5069479;28;20044;-67
2022/06/15 10:35:15;;;;;;;2.88;1.60;;;19.90;99.90;;;;;;5040660;28;20074;-67
2022/06/15 10:37:50;;;;;;;3.22;1.80;;;19.80;99.90;;;;;;5015630;28;20378;-67
2022/06/15 10:40:23;;;;;;;3.20;1.70;;;19.70;99.90;;;;;;5020394;28;20075;-67
2022/06/15 10:43:11;;;;;;;5.68;1.85;;;19.70;99.90;;;;;;5031262;28;20043;-67
2022/06/15 10:45:56;;;;;;;6.53;1.80;;;19.70;99.90;;;;;;5007727;28;20144;-67
2022/06/15 10:48:33;;;;;;;3.53;1.55;;;19.80;99.90;;;;;;5028244;28;20049;-67
2022/06/15 10:51:05;;;;;;;5.60;1.85;;;20.00;99.90;;;;;;5054471;28;20489;-69
2022/06/15 10:53:57;;;;;;;4.63;1.90;;;20.10;99.90;;;;;;5049167;28;20095;-68
2022/06/15 11:02:31;;;;;;;3.50;1.60;;;20.40;99.90;;;;;;5049248;28;20049;-67
2022/06/15 11:04:59;;;;;;;4.25;1.70;;;20.50;99.90;;;;;;5017005;28;20442;-68
2022/06/15 11:07:33;;;;;;;6.50;1.80;;;20.60;99.90;;;;;;5032359;28;20122;-68
2022/06/15 11:09:58;;;;;;;4.90;2.08;;;20.90;99.90;;;;;;5046679;28;20509;-68
2022/06/15 11:12:31;;;;;;;2.72;1.65;;;21.10;99.90;;;;;;5042917;28;20148;-68
2022/06/15 11:15:23;;;;;;;2.55;1.25;;;21.10;99.90;;;;;;5011845;28;20679;-68
2022/06/15 11:18:04;;;;;;;4.15;2.08;;;21.20;99.90;;;;;;5035615;28;20052;-68
2022/06/15 11:20:47;;;;;;;4.25;2.33;;;21.30;99.90;;;;;;5052802;28;20044;-68
2022/06/15 11:23:28;;;;;;;4.93;1.73;;;21.40;99.90;;;;;;5030095;28;20486;-68
2022/06/15 11:26:52;;;;;;;5.50;1.85;;;21.40;99.90;;;;;;5040201;28;20060;-67
2022/06/15 11:28:55;;;;;;;3.38;1.98;;;21.50;99.90;;;;;;5072073;28;20048;-68
2022/06/15 11:31:24;;;;;;;2.50;1.55;;;21.60;99.90;;;;;;5054858;28;20616;-68
2022/06/15 11:33:57;;;;;;;4.50;1.67;;;21.70;99.90;;;;;;5025558;28;20448;-68
2022/06/15 11:36:46;;;;;;;4.63;1.60;;;21.80;99.90;;;;;;5046264;28;20402;-68
2022/06/15 11:39:20;;;;;;;4.00;1.90;;;21.80;99.90;;;;;;5026623;28;20094;-68
2022/06/15 11:41:54;;;;;;;4.57;1.70;;;21.90;99.90;;;;;;5060772;28;20087;-70
2022/06/15 11:44:24;;;;;;;4.30;1.73;;;22.00;99.90;;;;;;5026441;28;20095;-68
2022/06/15 11:47:12;;;;;;;4.68;1.92;;;22.20;99.90;;;;;;5014767;28;20420;-68
2022/06/15 11:49:49;;;;;;;4.15;1.58;;;22.20;99.90;;;;;;5048123;28;20037;-68
2022/06/15 11:52:33;;;;;;;2.40;1.10;;;22.40;99.90;;;;;;5025867;28;20044;-68
2022/06/15 11:55:22;;;;;;;3.92;1.75;;;22.60;99.90;;;;;;5025195;28;20052;-68
2022/06/15 11:58:18;;;;;;;3.65;1.50;;;22.70;99.90;;;;;;5034107;28;20056;-68
2022/06/15 12:00:46;;;;;;;4.43;1.65;;;22.80;99.90;;;;;;5040089;28;20049;-68
2022/06/15 12:03:36;;;;;;;4.38;1.63;;;22.90;99.90;;;;;;5035295;28;20049;-68
2022/06/15 12:06:10;;;;;;;4.13;1.65;;;22.80;96.80;;;;;;5053395;28;20053;-68
2022/06/15 12:08:46;;;;;;;4.22;2.33;;;22.70;99.90;;;;;;5038704;28;20046;-68
2022/06/15 12:14:52;;;;;;;2.67;1.90;;;22.30;98.30;;;;;;5059933;28;20132;-68
2022/06/15 12:17:33;;;;;;;3.80;1.92;;;22.20;99.90;;;;;;5040489;28;20049;-68
2022/06/15 12:20:33;;;;;;;2.92;1.42;;;22.00;99.90;;;;;;5049748;28;20039;-68
2022/06/15 12:23:06;;;;;;;4.95;1.48;;;21.80;99.90;;;;;;5027413;28;20040;-68
2022/06/15 12:26:01;;;;;;;6.25;2.22;;;21.80;99.90;;;;;;5042327;28;20052;-68
2022/06/15 12:29:06;;;;;;;3.05;1.85;;;22.00;99.90;;;;;;5007922;28;20057;-68
2022/06/15 12:31:49;;;;;;;3.75;1.95;;;22.10;99.90;;;;;;5040120;28;20048;-68
2022/06/15 12:34:36;;;;;;;4.07;1.80;;;22.30;99.90;;;;;;5044531;28;20049;-68
2022/06/15 12:37:06;;;;;;;4.82;2.05;;;22.60;99.90;;;;;;5019678;28;20040;-68
2022/06/15 12:39:49;;;;;;;4.57;1.98;;;22.80;99.90;;;;;;5045666;28;20040;-68
2022/06/15 12:42:17;;;;;;;3.80;2.17;;;23.00;99.70;;;;;;5020139;28;20036;-68
2022/06/15 12:45:07;;;;;;;2.95;1.73;;;23.10;99.20;;;;;;5038746;28;20068;-68
2022/06/15 12:47:37;;;;;;;3.95;2.63;;;23.10;96.40;;;;;;5054371;28;20489;-68
2022/06/15 12:50:18;;;;;;;5.68;1.98;;;23.00;97.70;;;;;;5014993;28;20095;-68
2022/06/15 12:53:20;;;;;;;2.80;1.80;;;22.80;96.60;;;;;;5036855;28;20047;-68
2022/06/15 12:56:11;;;;;;;3.83;1.98;;;22.60;95.20;;;;;;5050474;28;20112;-68
2022/06/15 12:59:15;;;;;;;2.78;1.73;;;22.30;96.10;;;;;;5016862;28;20049;-69
2022/06/15 13:02:24;;;;;;;4.80;2.00;;;22.10;96.60;;;;;;4941335;28;20063;-68
2022/06/15 13:05:02;;;;;;;4.03;1.48;;;21.90;95.90;;;;;;5049843;28;20094;-68
2022/06/15 13:07:33;;;;;;;5.05;1.80;;;21.80;99.00;;;;;;5037443;28;20064;-68
2022/06/15 13:10:07;;;;;;;2.92;1.70;;;21.70;99.30;;;;;;5033808;28;20037;-68
2022/06/15 13:12:41;;;;;;;4.43;1.92;;;21.60;99.50;;;;;;5030086;28;20033;-68
2022/06/15 13:15:17;;;;;;;4.15;1.95;;;21.60;99.30;;;;;;5036657;28;20051;-68
2022/06/15 13:18:08;;;;;;;4.18;1.95;;;21.60;99.50;;;;;;5047450;28;20040;-68
2022/06/15 13:21:01;;;;;;;4.88;1.75;;;21.50;99.80;;;;;;5035730;28;20045;-68
2022/06/15 13:23:32;;;;;;;3.60;1.92;;;21.50;99.90;;;;;;5023567;28;20529;-68
2022/06/15 13:26:20;;;;;;;4.38;2.22;;;21.70;99.90;;;;;;5012846;28;20040;-68
2022/06/15 13:29:01;;;;;;;3.53;1.55;;;21.70;99.00;;;;;;5035404;28;20044;-68
2022/06/15 13:31:45;;;;;;;5.18;2.13;;;21.70;99.90;;;;;;5040568;28;20064;-68